Time;durP1;ratioP1;P1;durP2;ratioP2;P2;SDS_P1;SDS_P2;PMS_P1;PMS_P2;Temp;Humidity;BMP_temperature;BMP_pressure;BME280_temperature;BME280_humidity;BME280_pressure;Samples;Min_cycle;Max_cycle;Signal;HPM_P1;HPM_P2
2022/02/23 00:01:33;;;;;;;20.70;5.25;;;;;;;3.35;100.00;99317.78;5116785;28;20036;-76
2022/02/23 00:04:18;;;;;;;17.45;4.68;;;;;;;3.30;100.00;99315.22;5101643;28;20047;-76
2022/02/23 00:07:02;;;;;;;19.70;5.93;;;;;;;3.36;100.00;99319.53;5116773;28;20039;-76
2022/02/23 00:09:47;;;;;;;11.55;4.50;;;;;;;3.44;100.00;99320.34;5115905;28;20044;-76
2022/02/23 00:12:31;;;;;;;16.50;4.85;;;;;;;3.41;100.00;99321.25;5116703;28;20085;-76
2022/02/23 00:15:16;;;;;;;21.05;5.40;;;;;;;3.44;100.00;99297.91;5115756;28;20487;-76
2022/02/23 00:18:00;;;;;;;17.73;5.50;;;;;;;3.44;100.00;99308.25;5101456;28;20035;-76
2022/02/23 00:20:45;;;;;;;16.13;4.35;;;;;;;3.44;100.00;99297.03;5101418;28;20043;-76
2022/02/23 00:23:29;;;;;;;15.57;4.60;;;;;;;3.38;100.00;99295.38;5116700;28;20035;-76
2022/02/23 00:26:13;;;;;;;22.52;6.38;;;;;;;3.43;100.00;99298.78;5115598;28;20039;-76
2022/02/23 00:28:58;;;;;;;17.25;5.35;;;;;;;3.41;100.00;99285.00;5101114;28;20055;-76
2022/02/23 00:31:42;;;;;;;19.45;5.93;;;;;;;3.46;100.00;99278.06;5101074;28;20480;-76
2022/02/23 00:34:27;;;;;;;15.48;4.32;;;;;;;3.56;100.00;99270.25;5101182;28;20066;-76
2022/02/23 00:37:12;;;;;;;14.80;5.25;;;;;;;3.55;100.00;99271.97;5116246;28;20353;-75
2022/02/23 00:39:56;;;;;;;20.98;5.07;;;;;;;3.60;100.00;99267.63;5115601;28;20036;-76
2022/02/23 00:42:41;;;;;;;11.57;4.00;;;;;;;3.50;100.00;99260.78;5115564;28;20047;-76
2022/02/23 00:45:26;;;;;;;15.88;5.53;;;;;;;3.51;100.00;99258.19;5101075;28;20042;-76
2022/02/23 00:48:11;;;;;;;18.25;5.30;;;;;;;3.48;100.00;99255.63;5115366;28;20052;-76
2022/02/23 00:50:55;;;;;;;19.58;5.60;;;;;;;3.58;100.00;99255.56;5116225;28;20055;-76
2022/02/23 00:53:39;;;;;;;15.30;5.18;;;;;;;3.57;100.00;99238.28;5115442;28;20052;-76
2022/02/23 00:56:24;;;;;;;15.95;5.00;;;;;;;3.61;100.00;99251.22;5100897;28;20081;-76
2022/02/23 00:59:09;;;;;;;16.10;5.18;;;;;;;3.66;100.00;99249.47;5115940;28;20035;-76
2022/02/23 01:01:53;;;;;;;10.25;3.80;;;;;;;3.67;100.00;99239.94;5115333;28;20453;-76
2022/02/23 01:04:38;;;;;;;16.60;5.50;;;;;;;3.65;100.00;99231.34;5101043;28;20452;-76
2022/02/23 01:07:22;;;;;;;14.63;4.00;;;;;;;3.71;100.00;99228.72;5115252;28;20044;-76
2022/02/23 01:10:09;;;;;;;11.90;4.07;;;;;;;3.70;100.00;99226.97;5115285;28;20043;-76
2022/02/23 01:12:53;;;;;;;9.95;3.45;;;;;;;3.69;100.00;99233.03;5115246;28;20039;-76
2022/02/23 01:15:37;;;;;;;12.68;3.70;;;;;;;3.71;100.00;99214.03;5115198;28;20100;-76
2022/02/23 01:18:22;;;;;;;15.80;4.22;;;;;;;3.82;100.00;99226.06;5100818;28;20039;-76
2022/02/23 01:21:07;;;;;;;7.07;3.28;;;;;;;3.84;100.00;99224.31;5115713;28;20039;-76
2022/02/23 01:23:51;;;;;;;24.05;4.88;;;;;;;3.84;100.00;99220.00;5115128;28;20035;-76
2022/02/23 01:26:35;;;;;;;10.20;2.92;;;;;;;3.83;100.00;99220.00;5115837;28;20043;-76
2022/02/23 01:29:19;;;;;;;12.85;3.20;;;;;;;3.81;100.00;99209.66;5114826;28;20052;-77
2022/02/23 01:32:04;;;;;;;12.90;4.18;;;;;;;3.82;100.00;99213.97;5086537;28;20047;-76
2022/02/23 01:34:49;;;;;;;13.32;4.70;;;;;;;3.80;100.00;99213.09;5100794;28;20063;-77
2022/02/23 01:37:33;;;;;;;15.13;4.72;;;;;;;3.85;100.00;99202.72;5115106;28;20417;-77
2022/02/23 01:40:17;;;;;;;11.68;4.35;;;;;;;3.90;100.00;99203.53;5115624;28;20039;-78
2022/02/23 01:43:02;;;;;;;22.73;6.63;;;;;;;3.81;100.00;99194.13;5102369;28;20032;-77
2022/02/23 01:45:46;;;;;;;13.05;5.32;;;;;;;3.85;100.00;99194.94;5118584;28;20036;-77
2022/02/23 01:48:31;;;;;;;13.90;4.60;;;;;;;3.86;100.00;99191.47;5089986;28;20119;-77
2022/02/23 01:51:16;;;;;;;12.40;4.68;;;;;;;3.90;100.00;99196.63;5104042;28;20097;-78
2022/02/23 01:54:00;;;;;;;14.43;4.25;;;;;;;3.94;100.00;99190.56;5118540;28;20035;-77
2022/02/23 01:56:44;;;;;;;10.70;3.95;;;;;;;3.85;100.00;99188.03;5104184;28;20039;-77
2022/02/23 01:59:29;;;;;;;9.93;3.42;;;;;;;3.93;100.00;99201.78;5103964;28;20039;-78
2022/02/23 02:02:14;;;;;;;12.77;4.30;;;;;;;3.95;100.00;99210.41;5118250;28;20036;-78
2022/02/23 02:04:59;;;;;;;7.93;3.72;;;;;;;3.90;100.00;99203.53;5119002;28;20046;-78
2022/02/23 02:07:43;;;;;;;13.85;4.22;;;;;;;3.88;100.00;99193.19;5118162;28;20031;-78
2022/02/23 02:10:28;;;;;;;14.20;3.95;;;;;;;3.86;100.00;99192.31;5103810;28;20428;-79
2022/02/23 02:13:13;;;;;;;9.30;3.63;;;;;;;3.92;100.00;99188.84;5118796;28;20036;-79
2022/02/23 02:15:57;;;;;;;13.10;3.40;;;;;;;3.95;100.00;99194.84;5103741;28;20429;-80
2022/02/23 02:18:41;;;;;;;11.50;3.70;;;;;;;3.95;100.00;99191.41;5117994;28;20045;-80
2022/02/23 02:21:29;;;;;;;10.95;3.30;;;;;;;3.95;100.00;99191.41;5103490;28;20051;-79
2022/02/23 02:24:14;;;;;;;9.07;3.25;;;;;;;3.92;100.00;99199.19;5117785;28;20035;-79
2022/02/23 02:27:00;;;;;;;10.10;2.92;;;;;;;3.98;100.00;99196.56;5117838;28;20047;-78
2022/02/23 02:29:44;;;;;;;11.57;4.38;;;;;;;3.91;100.00;99190.56;5103214;28;20066;-78
2022/02/23 02:32:29;;;;;;;8.93;2.88;;;;;;;3.90;100.00;99178.50;5118074;28;20413;-79
2022/02/23 02:35:15;;;;;;;11.68;3.15;;;;;;;3.92;100.00;99189.69;5103152;28;20122;-79
2022/02/23 02:38:00;;;;;;;8.25;3.35;;;;;;;3.95;100.00;99183.63;5117663;28;20043;-79
2022/02/23 02:40:45;;;;;;;7.60;3.50;;;;;;;3.99;100.00;99186.16;5118109;28;20135;-79
2022/02/23 02:43:29;;;;;;;12.45;4.13;;;;;;;4.03;100.00;99180.97;5118182;28;20063;-79
2022/02/23 02:46:13;;;;;;;8.38;2.63;;;;;;;4.06;100.00;99178.34;5103128;28;20044;-79
2022/02/23 02:48:58;;;;;;;8.85;2.40;;;;;;;4.03;100.00;99174.06;5117533;28;20035;-78
2022/02/23 02:51:43;;;;;;;7.78;3.45;;;;;;;4.09;100.00;99167.97;5117298;28;20067;-78
2022/02/23 02:54:27;;;;;;;11.75;3.53;;;;;;;4.12;100.00;99167.94;5102780;28;20039;-78
2022/02/23 02:57:11;;;;;;;10.68;3.85;;;;;;;4.10;100.00;99180.06;5102766;28;20036;-78
2022/02/23 02:59:56;;;;;;;9.65;4.00;;;;;;;4.12;100.00;99168.78;5117851;28;20036;-77
2022/02/23 03:02:40;;;;;;;8.27;3.90;;;;;;;4.12;100.00;99167.94;5117231;28;20035;-77
2022/02/23 03:05:25;;;;;;;9.70;4.25;;;;;;;4.06;100.00;99160.22;5102675;28;20369;-77
2022/02/23 03:08:09;;;;;;;7.63;4.43;;;;;;;4.19;100.00;99191.22;5116901;28;20043;-77
2022/02/23 03:10:54;;;;;;;9.13;3.75;;;;;;;4.10;100.00;99170.56;5102616;28;20040;-78
2022/02/23 03:13:39;;;;;;;6.47;3.00;;;;;;;4.19;100.00;99182.53;5102547;28;20036;-77
2022/02/23 03:16:24;;;;;;;10.95;3.85;;;;;;;4.26;100.00;99186.81;5116720;28;20051;-78
2022/02/23 03:19:08;;;;;;;4.72;2.40;;;;;;;4.32;100.00;99189.38;5102379;28;20040;-78
2022/02/23 03:21:53;;;;;;;5.45;2.42;;;;;;;4.34;100.00;99189.34;5116697;28;20399;-78
2022/02/23 03:24:37;;;;;;;6.93;3.60;;;;;;;4.32;100.00;99191.06;5116693;28;20115;-79
2022/02/23 03:27:21;;;;;;;9.98;3.05;;;;;;;4.42;100.00;99206.56;5102234;28;20044;-78
2022/02/23 03:30:06;;;;;;;9.00;3.70;;;;;;;4.51;100.00;99208.16;5101950;28;20055;-79
2022/02/23 03:32:50;;;;;;;7.80;3.53;;;;;;;4.53;100.00;99213.34;5116608;28;20040;-79
2022/02/23 03:35:40;;;;;;;4.97;3.38;;;;;;;4.56;100.00;99205.53;5102577;28;20111;-79
2022/02/23 03:38:25;;;;;;;9.82;3.53;;;;;;;4.59;100.00;99203.78;5116368;28;20044;-79
2022/02/23 03:41:11;;;;;;;7.63;3.35;;;;;;;4.61;100.00;99206.34;5116270;28;20039;-78
2022/02/23 03:43:55;;;;;;;4.30;2.92;;;;;;;4.69;100.00;99213.19;5101942;28;20040;-78
2022/02/23 03:46:39;;;;;;;6.70;4.65;;;;;;;4.73;100.00;99219.19;5102061;28;20118;-78
2022/02/23 03:49:24;;;;;;;8.57;3.55;;;;;;;4.70;100.00;99221.81;5116190;28;20420;-78
2022/02/23 03:52:09;;;;;;;6.97;3.33;;;;;;;4.71;100.00;99220.94;5116234;28;20063;-78
2022/02/23 03:54:53;;;;;;;4.80;3.20;;;;;;;4.74;100.00;99233.03;5116130;28;20108;-78
2022/02/23 03:57:37;;;;;;;11.80;5.45;;;;;;;4.88;100.00;99234.59;5116098;28;20056;-78
2022/02/23 04:00:22;;;;;;;17.05;6.57;;;;;;;4.95;100.00;99227.59;5116618;28;20440;-78
2022/02/23 04:03:06;;;;;;;7.25;3.83;;;;;;;4.86;100.00;99227.69;5116728;28;20035;-78
2022/02/23 04:05:50;;;;;;;5.50;2.80;;;;;;;4.91;100.00;99238.91;5115690;28;20046;-78
2022/02/23 04:08:34;;;;;;;7.15;3.17;;;;;;;5.00;100.00;99243.97;5115964;28;20357;-78
2022/02/23 04:11:19;;;;;;;6.35;2.40;;;;;;;5.04;100.00;99247.41;5116496;28;20349;-78
2022/02/23 04:14:04;;;;;;;6.53;2.70;;;;;;;5.08;100.00;99257.72;5116556;28;20039;-77
2022/02/23 04:16:49;;;;;;;8.18;2.22;;;;;;;5.07;100.00;99257.72;5115799;28;20047;-78
2022/02/23 04:19:34;;;;;;;9.25;2.45;;;;;;;5.08;100.00;99255.13;5115797;28;20039;-77
2022/02/23 04:22:18;;;;;;;4.90;1.92;;;;;;;5.12;100.00;99266.34;5116473;28;20040;-78
2022/02/23 04:25:03;;;;;;;5.97;1.70;;;;;;;5.18;100.00;99292.22;5115867;28;20433;-78
2022/02/23 04:27:48;;;;;;;11.10;2.38;;;;;;;5.19;100.00;99295.69;5115541;28;20425;-78
2022/02/23 04:30:32;;;;;;;9.80;1.80;;;;;;;5.27;100.00;99299.94;5115724;28;20047;-77
2022/02/23 04:33:17;;;;;;;5.72;1.35;;;;;;;5.33;100.00;99314.56;5116290;28;20043;-77
2022/02/23 04:36:04;;;;;;;7.72;1.73;;;;;;;5.33;100.00;99325.81;5100956;28;20449;-77
2022/02/23 04:38:49;;;;;;;9.80;2.38;;;;;;;5.26;100.00;99318.09;5115586;28;20044;-77
2022/02/23 04:41:35;;;;;;;8.57;1.98;;;;;;;5.25;100.00;99322.44;5101533;28;20046;-77
2022/02/23 04:44:19;;;;;;;10.45;1.85;;;;;;;5.26;100.00;99324.16;5115479;28;20096;-77
2022/02/23 04:47:04;;;;;;;12.10;1.85;;;;;;;5.16;100.00;99335.50;5115508;28;20382;-77
2022/02/23 04:49:49;;;;;;;8.75;1.48;;;;;;;5.10;100.00;99340.78;5101110;28;20044;-78
2022/02/23 04:52:33;;;;;;;9.68;1.50;;;;;;;5.13;100.00;99351.13;5115544;28;20043;-77
2022/02/23 04:55:18;;;;;;;5.93;1.52;;;;;;;5.18;100.00;99353.69;5115377;28;20031;-77
2022/02/23 04:58:07;;;;;;;20.20;7.40;;;;;;;5.12;100.00;99350.28;5116232;28;20039;-77
2022/02/23 05:00:52;;;;;;;19.40;7.53;;;;;;;5.08;100.00;99366.75;5100926;28;20035;-77
2022/02/23 05:03:37;;;;;;;16.48;5.68;;;;;;;5.12;100.00;99365.00;5115353;28;20040;-77
2022/02/23 05:06:22;;;;;;;27.95;11.30;;;;;;;5.08;100.00;99363.31;5115964;28;20039;-77
2022/02/23 05:09:06;;;;;;;12.45;3.38;;;;;;;5.02;100.00;99369.41;5115934;28;20051;-77
2022/02/23 05:11:51;;;;;;;36.25;13.55;;;;;;;5.03;100.00;99385.84;5101017;28;20055;-77
2022/02/23 05:14:36;;;;;;;17.90;6.28;;;;;;;4.94;100.00;99386.81;5101125;28;20050;-77
2022/02/23 05:17:20;;;;;;;15.88;5.13;;;;;;;4.94;100.00;99389.41;5116524;28;20044;-77
2022/02/23 05:20:05;;;;;;;24.73;10.50;;;;;;;5.03;100.00;99420.44;5119684;28;20439;-76
2022/02/23 05:22:50;;;;;;;33.95;15.18;;;;;;;5.04;100.00;99418.75;5119174;28;20043;-77
2022/02/23 05:25:34;;;;;;;19.95;8.75;;;;;;;4.98;100.00;99426.56;5119075;28;20036;-77
2022/02/23 05:28:19;;;;;;;18.25;8.48;;;;;;;4.89;100.00;99425.75;5119478;28;20052;-77
2022/02/23 05:31:04;;;;;;;185.25;75.28;;;;;;;4.91;100.00;99439.59;5104448;28;20126;-77
2022/02/23 05:33:48;;;;;;;493.45;179.00;;;;;;;4.83;100.00;99441.38;5118823;28;20040;-77
2022/02/23 05:36:33;;;;;;;408.88;130.35;;;;;;;4.86;100.00;99443.94;5104520;28;20043;-77
2022/02/23 05:39:17;;;;;;;73.43;27.25;;;;;;;4.86;100.00;99461.25;5104260;28;20043;-77
2022/02/23 05:42:02;;;;;;;19.88;5.90;;;;;;;4.90;100.00;99466.41;5119479;28;20036;-77
2022/02/23 05:44:46;;;;;;;13.45;4.00;;;;;;;4.91;100.00;99468.16;5118635;28;20043;-77
2022/02/23 05:47:31;;;;;;;15.13;3.63;;;;;;;4.67;100.00;99463.97;5118254;28;20118;-77
2022/02/23 05:50:15;;;;;;;13.50;3.20;;;;;;;4.75;100.00;99461.34;5118519;28;20066;-76
2022/02/23 05:53:00;;;;;;;20.52;3.88;;;;;;;4.85;100.00;99483.75;5117723;28;20111;-76
2022/02/23 05:55:45;;;;;;;13.45;2.10;;;;;;;4.75;100.00;99476.91;5116674;28;20067;-77
2022/02/23 05:58:29;;;;;;;15.98;3.08;;;;;;;4.85;100.00;99473.38;5117730;28;20110;-76
2022/02/23 06:01:14;;;;;;;16.73;2.38;;;;;;;4.84;100.00;99496.72;5102213;28;20109;-76
2022/02/23 06:03:58;;;;;;;12.38;1.95;;;;;;;4.84;100.00;99501.91;5104006;28;20060;-76
2022/02/23 06:06:43;;;;;;;16.83;2.95;;;;;;;4.73;100.00;99524.50;5118815;28;20040;-76
2022/02/23 06:09:27;;;;;;;19.33;2.60;;;;;;;4.55;100.00;99510.75;5118406;28;20093;-76
2022/02/23 06:12:12;;;;;;;12.50;2.47;;;;;;;4.60;100.00;99529.75;5119358;28;20059;-76
2022/02/23 06:14:56;;;;;;;15.07;2.72;;;;;;;4.54;100.00;99549.66;5118924;28;20418;-77
2022/02/23 06:17:41;;;;;;;24.65;2.80;;;;;;;4.59;100.00;99533.22;5103586;28;20357;-77
2022/02/23 06:20:26;;;;;;;17.25;3.47;;;;;;;4.49;100.00;99556.63;5118486;28;20369;-76
2022/02/23 06:23:11;;;;;;;15.23;2.40;;;;;;;4.52;100.00;99569.53;5118565;28;20036;-77
2022/02/23 06:25:55;;;;;;;29.33;10.13;;;;;;;4.55;100.00;99569.53;5117699;28;20411;-76
2022/02/23 06:28:40;;;;;;;43.50;17.33;;;;;;;4.54;100.00;99581.66;5117741;28;20051;-77
2022/02/23 06:31:24;;;;;;;26.35;7.00;;;;;;;4.68;100.00;99584.19;5118867;28;20043;-77
2022/02/23 06:34:08;;;;;;;23.58;6.75;;;;;;;4.76;100.00;99592.78;5103699;28;20036;-77
2022/02/23 06:36:53;;;;;;;24.05;5.10;;;;;;;4.77;100.00;99591.06;5103254;28;20044;-77
2022/02/23 06:39:40;;;;;;;17.88;4.28;;;;;;;4.73;100.00;99586.75;5117966;28;20039;-76
2022/02/23 06:42:24;;;;;;;12.98;3.47;;;;;;;4.73;100.00;99605.78;5117729;28;20043;-78
2022/02/23 06:45:09;;;;;;;18.50;3.58;;;;;;;4.83;100.00;99598.81;5103038;28;20031;-77
2022/02/23 06:47:53;;;;;;;26.73;6.82;;;;;;;4.86;100.00;99611.78;5117643;28;20054;-76
2022/02/23 06:50:39;;;;;;;64.47;22.73;;;;;;;4.73;100.00;99610.97;5117821;28;20055;-77
2022/02/23 06:53:23;;;;;;;40.53;13.00;;;;;;;4.86;100.00;99620.44;5118496;28;20110;-77
2022/02/23 06:56:08;;;;;;;15.07;3.88;;;;;;;4.82;100.00;99634.28;5117411;28;20035;-77
2022/02/23 06:58:52;;;;;;;22.98;4.13;;;;;;;4.90;100.00;99636.84;5102950;28;20039;-76
2022/02/23 07:01:37;;;;;;;17.88;3.83;;;;;;;4.96;100.00;99643.75;5116964;28;20417;-76
2022/02/23 07:04:22;;;;;;;17.45;3.10;;;;;;;4.95;100.00;99636.84;5118295;28;20043;-77
2022/02/23 07:07:07;;;;;;;18.25;4.30;;;;;;;5.05;100.00;99654.09;5118138;28;20474;-77
2022/02/23 07:09:51;;;;;;;20.95;4.50;;;;;;;5.04;100.00;99673.13;5117335;28;20069;-76
2022/02/23 07:12:36;;;;;;;15.10;3.47;;;;;;;5.09;100.00;99669.63;5117564;28;20051;-77
2022/02/23 07:15:22;;;;;;;19.63;3.55;;;;;;;5.18;100.00;99684.31;5117783;28;20039;-77
2022/02/23 07:18:07;;;;;;;14.65;4.15;;;;;;;5.10;100.00;99696.44;5116962;28;20425;-77
2022/02/23 07:20:51;;;;;;;21.48;5.47;;;;;;;5.23;100.00;99707.63;5117186;28;20044;-77
2022/02/23 07:23:37;;;;;;;23.58;8.48;;;;;;;5.21;100.00;99697.28;5116737;28;20399;-76
2022/02/23 07:26:21;;;;;;;16.65;3.28;;;;;;;5.18;100.00;99712.88;5117636;28;20418;-77
2022/02/23 07:29:07;;;;;;;21.67;5.15;;;;;;;5.22;100.00;99693.78;5102312;28;20058;-77
2022/02/23 07:31:51;;;;;;;18.45;4.68;;;;;;;5.27;100.00;99724.97;5102443;28;20092;-77
2022/02/23 07:34:37;;;;;;;21.33;2.80;;;;;;;5.34;100.00;99722.31;5102093;28;20051;-77
2022/02/23 07:37:21;;;;;;;31.92;7.07;;;;;;;5.22;100.00;99711.97;5116370;28;20039;-76
2022/02/23 07:40:10;;;;;;;37.95;10.57;;;;;;;5.42;100.00;99735.25;5116118;28;20040;-76
2022/02/23 07:42:54;;;;;;;21.02;6.63;;;;;;;5.41;100.00;99749.13;5116207;28;20039;-76
2022/02/23 07:45:40;;;;;;;30.67;11.05;;;;;;;5.36;100.00;99732.69;5099927;28;20055;-76
2022/02/23 07:48:24;;;;;;;25.42;8.80;;;;;;;5.41;100.00;99732.66;5115000;28;20039;-76
2022/02/23 07:51:09;;;;;;;21.58;4.75;;;;;;;5.49;100.00;99739.56;5099801;28;20044;-76
2022/02/23 07:53:55;;;;;;;15.90;4.90;;;;;;;5.44;100.00;99759.50;5114067;28;20051;-76
2022/02/23 07:56:40;;;;;;;15.35;2.42;;;;;;;5.47;100.00;99751.69;5114076;28;20056;-76
2022/02/23 07:59:24;;;;;;;21.50;6.90;;;;;;;5.60;100.00;99761.13;5114123;28;20044;-77
2022/02/23 08:02:09;;;;;;;18.33;3.30;;;;;;;5.70;100.00;99751.56;5115671;28;20050;-76
2022/02/23 08:04:53;;;;;;;11.80;2.63;;;;;;;5.83;100.00;99757.53;5101891;28;20050;-76
2022/02/23 08:07:37;;;;;;;14.32;3.80;;;;;;;5.87;100.00;99743.63;5116581;28;20043;-77
2022/02/23 08:10:23;;;;;;;11.27;2.22;;;;;;;6.04;100.00;99760.00;5101430;28;20044;-76
2022/02/23 08:13:08;;;;;;;11.90;2.42;;;;;;;6.07;100.00;99759.13;5116535;28;20046;-76
2022/02/23 08:22:03;;;;;;;21.50;6.60;;;;;;;6.54;100.00;99782.16;5115836;28;20043;-76
2022/02/23 08:24:48;;;;;;;24.30;6.50;;;;;;;6.80;100.00;99786.25;5115999;28;20059;-76
2022/02/23 08:27:35;;;;;;;13.23;3.17;;;;;;;7.11;100.00;99780.69;5116895;28;20492;-76
2022/02/23 08:30:20;;;;;;;17.15;5.05;;;;;;;7.23;100.00;99786.63;5101196;28;20407;-77
2022/02/23 08:33:05;;;;;;;17.88;3.72;;;;;;;7.23;100.00;99796.19;5116803;28;20111;-77
2022/02/23 08:35:50;;;;;;;14.75;2.42;;;;;;;7.38;100.00;99775.19;5116254;28;20036;-77
2022/02/23 08:38:34;;;;;;;13.27;2.78;;;;;;;7.36;100.00;99800.38;5101506;28;20051;-77
2022/02/23 08:41:20;;;;;;;15.27;3.25;;;;;;;7.04;100.00;99800.75;5115340;28;20035;-77
2022/02/23 08:44:07;;;;;;;62.85;25.92;;;;;;;7.14;100.00;99797.16;5116707;28;20378;-77
2022/02/23 08:46:51;;;;;;;75.88;36.20;;;;;;;6.88;100.00;99813.06;5115330;28;20062;-77
2022/02/23 08:49:36;;;;;;;150.65;61.45;;;;;;;7.01;100.00;99816.41;5115362;28;20047;-77
2022/02/23 08:52:21;;;;;;;95.45;38.05;;;;;;;6.97;100.00;99822.53;5117693;28;20044;-77
2022/02/23 08:55:07;;;;;;;124.63;51.95;;;;;;;7.05;100.00;99832.84;5119725;28;20058;-78
2022/02/23 08:57:52;;;;;;;76.57;29.80;;;;;;;6.90;100.00;99839.94;5120657;28;20047;-77
2022/02/23 09:00:36;;;;;;;26.23;8.95;;;;;;;6.85;100.00;99828.69;5119381;28;20050;-77
2022/02/23 09:03:23;;;;;;;20.80;9.38;;;;;;;6.74;100.00;99830.56;5104875;28;20047;-77
2022/02/23 09:06:07;;;;;;;20.08;6.20;;;;;;;6.81;100.00;99846.97;5119472;28;20039;-77
2022/02/23 09:08:51;;;;;;;17.70;3.22;;;;;;;6.69;100.00;99842.75;5120261;28;20122;-77
2022/02/23 09:11:35;;;;;;;10.07;2.45;;;;;;;6.55;100.00;99858.47;5104683;28;20067;-77
2022/02/23 09:14:20;;;;;;;18.25;3.30;;;;;;;6.58;100.00;99855.84;5119211;28;20043;-77
2022/02/23 09:17:04;;;;;;;14.23;4.47;;;;;;;6.58;100.00;99837.63;5104763;28;20071;-77
2022/02/23 09:19:50;;;;;;;14.95;4.80;;;;;;;6.62;100.00;99823.72;5119999;28;20047;-76
2022/02/23 09:22:34;;;;;;;16.27;6.15;;;;;;;6.94;100.00;99843.38;5118994;28;20039;-76
2022/02/23 09:25:18;;;;;;;14.20;5.68;;;;;;;7.25;100.00;99860.44;5118787;28;20096;-77
2022/02/23 09:28:03;;;;;;;9.23;2.20;;;;;;;7.29;100.00;99844.78;5119401;28;20040;-77
2022/02/23 09:30:48;;;;;;;14.57;4.00;;;;;;;7.29;100.00;99856.06;5104393;28;20066;-77
2022/02/23 09:33:32;;;;;;;14.23;4.10;;;;;;;7.19;100.00;99862.25;5119922;28;20031;-77
2022/02/23 09:36:17;;;;;;;10.10;2.63;;;;;;;7.47;100.00;99861.06;5118710;28;20074;-77
2022/02/23 09:39:01;;;;;;;11.52;3.30;;;;;;;7.62;100.00;99861.75;5118668;28;20469;-78
2022/02/23 09:41:46;;;;;;;10.98;2.90;;;;;;;7.59;100.00;99854.81;5118621;28;20108;-76
2022/02/23 09:44:31;;;;;;;13.23;2.95;;;;;;;7.82;100.00;99866.72;5119622;28;20067;-77
2022/02/23 09:47:16;;;;;;;15.43;3.20;;;;;;;7.78;100.00;99836.34;5104192;28;20345;-77
2022/02/23 09:50:05;;;;;;;15.25;4.40;;;;;;;8.23;100.00;99860.09;5118714;28;20449;-77
2022/02/23 09:52:52;;;;;;;11.60;3.33;;;;;;;8.39;100.00;99872.03;5119080;28;20039;-77
2022/02/23 09:55:36;;;;;;;13.82;3.10;;;;;;;8.38;100.00;99886.84;5119313;28;20044;-77
2022/02/23 09:58:21;;;;;;;13.30;3.25;;;;;;;8.35;100.00;99880.75;5104148;28;20051;-77
2022/02/23 10:01:07;;;;;;;31.88;10.45;;;;;;;8.21;100.00;99883.56;5104299;28;20044;-77
2022/02/23 10:03:55;;;;;;;12.75;2.75;;;;;;;7.80;100.00;99902.38;5103523;28;20040;-77
2022/02/23 10:06:41;;;;;;;12.05;3.22;;;;;;;7.79;100.00;99885.88;5104036;28;20043;-77
2022/02/23 10:09:26;;;;;;;11.80;3.05;;;;;;;8.00;100.00;99899.53;5117851;28;20043;-78
2022/02/23 10:12:17;;;;;;;12.98;4.47;;;;;;;8.48;100.00;99915.41;5118963;28;20032;-77
2022/02/23 10:15:05;;;;;;;17.33;4.28;;;;;;;8.63;100.00;99907.34;5117951;28;20043;-77
2022/02/23 10:17:51;;;;;;;14.55;4.30;;;;;;;8.69;100.00;99912.47;5118476;28;20039;-78
2022/02/23 10:20:39;;;;;;;13.52;4.20;;;;;;;8.62;100.00;99916.06;5102204;28;20054;-77
2022/02/23 10:23:26;;;;;;;15.20;3.40;;;;;;;8.38;100.00;99925.09;5101507;28;20444;-79
2022/02/23 10:26:13;;;;;;;19.27;5.05;;;;;;;8.39;100.00;99919.88;5115727;28;20073;-78
2022/02/23 10:29:00;;;;;;;12.07;3.78;;;;;;;8.17;100.00;99929.72;5101305;28;20054;-77
2022/02/23 10:31:51;;;;;;;8.15;2.75;;;;;;;8.17;100.00;99926.25;5101269;28;20040;-78
2022/02/23 10:34:43;;;;;;;13.55;3.08;;;;;;;8.37;100.00;99941.63;5101271;28;20055;-78
2022/02/23 10:37:30;;;;;;;12.50;2.65;;;;;;;8.20;100.00;99926.22;5116005;28;20054;-78
2022/02/23 10:40:15;;;;;;;10.98;4.40;;;;;;;8.22;100.00;99934.00;5116564;28;20043;-78
2022/02/23 10:43:21;;;;;;;16.40;4.38;;;;;;;8.52;100.00;99944.06;5102959;28;20039;-78
2022/02/23 10:46:11;;;;;;;15.65;5.28;;;;;;;8.59;100.00;99955.28;5117318;28;20064;-78
2022/02/23 10:49:01;;;;;;;14.43;4.28;;;;;;;8.69;96.71;99951.63;5103084;28;20050;-78
2022/02/23 10:51:48;;;;;;;8.60;2.50;;;;;;;8.72;93.16;99945.50;5117469;28;20409;-78
2022/02/23 10:54:35;;;;;;;12.25;2.83;;;;;;;8.56;91.45;99952.72;5117636;28;20043;-78
2022/02/23 10:57:22;;;;;;;16.45;2.78;;;;;;;8.50;89.56;99965.84;5117552;28;20039;-78
2022/02/23 11:00:22;;;;;;;13.63;3.30;;;;;;;8.39;87.99;99956.44;5117740;28;20044;-78
2022/02/23 11:03:06;;;;;;;22.70;6.25;;;;;;;8.37;88.07;99976.41;5117699;28;20070;-78
2022/02/23 11:05:51;;;;;;;14.18;4.63;;;;;;;8.32;85.51;99961.69;5103148;28;20039;-78
2022/02/23 11:08:36;;;;;;;19.45;8.27;;;;;;;8.29;85.74;99970.44;5116906;28;20109;-78
2022/02/23 11:11:22;;;;;;;13.77;3.95;;;;;;;8.25;88.42;99968.75;5117794;28;20456;-78
2022/02/23 11:14:09;;;;;;;9.48;2.05;;;;;;;8.42;82.53;99965.97;5117552;28;20040;-77
2022/02/23 11:16:55;;;;;;;10.93;3.35;;;;;;;8.47;83.48;99971.09;5116741;28;20039;-79
2022/02/23 11:19:41;;;;;;;11.65;2.83;;;;;;;8.30;82.06;99982.59;5117087;28;20036;-77
2022/02/23 11:22:28;;;;;;;8.82;2.25;;;;;;;8.40;84.50;99973.81;5117266;28;20043;-78
2022/02/23 11:25:13;;;;;;;16.45;3.75;;;;;;;8.48;83.50;99960.63;5117091;28;20039;-77
2022/02/23 11:28:03;;;;;;;12.05;3.80;;;;;;;8.44;84.78;99979.84;5116799;28;20039;-79
2022/02/23 11:31:03;;;;;;;12.15;3.72;;;;;;;8.66;83.19;99986.50;5102127;28;20039;-78
2022/02/23 11:34:05;;;;;;;11.35;3.13;;;;;;;8.71;82.42;99982.94;5102163;28;20092;-77
2022/02/23 11:36:52;;;;;;;17.42;4.82;;;;;;;8.62;83.05;99990.03;5116422;28;20039;-78
2022/02/23 11:39:40;;;;;;;12.20;3.28;;;;;;;8.52;80.39;99992.81;5102026;28;20035;-77
2022/02/23 11:42:25;;;;;;;10.40;2.33;;;;;;;8.72;81.06;100000.34;5102393;28;20044;-78
2022/02/23 11:45:13;;;;;;;12.02;2.55;;;;;;;8.85;79.94;99981.88;5101902;28;20051;-78
2022/02/23 11:47:58;;;;;;;15.60;5.45;;;;;;;8.83;81.30;100001.91;5116155;28;20047;-78
2022/02/23 11:51:00;;;;;;;11.63;3.88;;;;;;;8.78;82.13;99985.47;5101856;28;20051;-78
2022/02/23 11:53:44;;;;;;;11.25;3.03;;;;;;;8.90;80.90;99994.84;5102258;28;20048;-78
2022/02/23 11:56:49;;;;;;;8.95;2.88;;;;;;;8.84;81.04;99976.69;5116042;28;20032;-78
2022/02/23 11:59:46;;;;;;;16.85;4.75;;;;;;;9.06;79.56;100008.53;5116537;28;20047;-77
2022/02/23 12:02:31;;;;;;;21.38;6.97;;;;;;;9.29;80.59;100021.22;5115854;28;20039;-78
2022/02/23 12:05:34;;;;;;;11.93;2.60;;;;;;;9.69;77.47;100028.41;5115947;28;20078;-77
2022/02/23 12:08:37;;;;;;;12.65;3.00;;;;;;;9.49;76.70;100024.41;5116601;28;20044;-79
2022/02/23 12:11:21;;;;;;;8.55;2.28;;;;;;;9.35;77.11;100032.44;5101527;28;20063;-78
2022/02/23 12:14:06;;;;;;;9.50;2.70;;;;;;;9.28;76.33;100007.31;5116502;28;20407;-77
2022/02/23 12:16:50;;;;;;;9.10;2.95;;;;;;;9.01;78.38;100023.44;5116150;28;20047;-77
2022/02/23 12:19:41;;;;;;;9.10;2.00;;;;;;;8.95;77.35;100039.19;5101539;28;20040;-77
2022/02/23 12:22:29;;;;;;;11.68;2.80;;;;;;;8.76;78.21;100034.22;5115956;28;20171;-78
2022/02/23 12:25:14;;;;;;;9.82;2.50;;;;;;;8.70;79.47;100023.00;5116470;28;20047;-77
2022/02/23 12:27:58;;;;;;;9.38;2.28;;;;;;;8.58;77.69;100034.47;5116002;28;20039;-78
2022/02/23 12:30:50;;;;;;;11.98;3.92;;;;;;;8.51;79.82;100041.53;5101655;28;20051;-78
2022/02/23 12:33:39;;;;;;;10.13;3.15;;;;;;;8.57;79.22;100045.81;5116062;28;20039;-78
2022/02/23 12:36:56;;;;;;;14.70;5.13;;;;;;;8.78;78.65;100048.13;5101302;28;20039;-78
2022/02/23 12:39:43;;;;;;;19.45;7.75;;;;;;;8.73;77.25;100038.63;5081911;28;20415;-78
2022/02/23 12:42:27;;;;;;;10.68;3.47;;;;;;;8.46;77.39;100060.75;5115930;28;20096;-78
2022/02/23 12:45:12;;;;;;;9.70;2.05;;;;;;;8.36;78.84;100045.16;5115441;28;20138;-77
2022/02/23 12:48:01;;;;;;;10.18;3.22;;;;;;;8.36;80.20;100044.31;5115401;28;20429;-78
2022/02/23 12:50:45;;;;;;;17.05;3.70;;;;;;;8.45;79.30;100039.00;5115731;28;20405;-78
2022/02/23 12:53:41;;;;;;;12.57;6.13;;;;;;;8.63;79.37;100043.13;5115296;28;20314;-77
2022/02/23 12:56:32;;;;;;;124.47;45.90;;;;;;;8.58;78.17;100053.63;5115259;28;20429;-78
2022/02/23 12:59:19;;;;;;;17.75;3.70;;;;;;;8.47;79.11;100050.28;5101154;28;20101;-77